createdAt,value
2022-12-20T00:01:43.337Z,19.90
2022-12-20T00:04:12.841Z,19.13
2022-12-20T00:06:41.542Z,18.48
2022-12-20T00:09:09.656Z,16.95
2022-12-20T00:11:39.604Z,17.13
2022-12-20T00:14:07.574Z,17.10
2022-12-20T00:16:36.344Z,20.08
2022-12-20T00:19:05.998Z,19.33
2022-12-20T00:21:34.867Z,19.52
2022-12-20T00:24:02.699Z,17.50
2022-12-20T00:26:32.119Z,16.88
2022-12-20T00:29:00.435Z,16.45
2022-12-20T00:31:29.218Z,17.13
2022-12-20T00:33:57.912Z,17.40
2022-12-20T00:36:27.447Z,16.88
2022-12-20T00:38:56.073Z,17.88
2022-12-20T00:41:28.872Z,19.25
2022-12-20T00:43:56.151Z,17.45
2022-12-20T00:46:24.832Z,18.80
2022-12-20T00:48:53.067Z,18.48
2022-12-20T00:51:25.713Z,17.20
2022-12-20T00:53:53.676Z,18.77
2022-12-20T00:56:21.505Z,18.63
2022-12-20T00:58:49.512Z,17.40
2022-12-20T01:01:26.724Z,16.60
2022-12-20T01:03:55.117Z,17.15
2022-12-20T01:06:25.358Z,18.30
2022-12-20T01:08:54.292Z,17.98
2022-12-20T01:11:30.700Z,17.55
2022-12-20T01:13:59.823Z,16.40
2022-12-20T01:16:37.136Z,16.60
2022-12-20T01:19:05.157Z,15.63
2022-12-20T01:21:32.355Z,15.15
2022-12-20T01:23:59.379Z,15.27
2022-12-20T01:26:29.168Z,13.82
2022-12-20T01:28:59.183Z,14.48
2022-12-20T01:31:27.695Z,14.93
2022-12-20T01:33:55.015Z,14.05
2022-12-20T01:36:27.833Z,13.63
2022-12-20T01:39:02.965Z,13.20
2022-12-20T01:41:32.267Z,13.15
2022-12-20T01:44:01.881Z,12.85
2022-12-20T01:46:32.308Z,12.88
2022-12-20T01:49:17.556Z,12.68
2022-12-20T01:51:48.284Z,13.15
2022-12-20T01:54:26.747Z,12.32
2022-12-20T01:57:05.508Z,13.10
2022-12-20T01:59:36.647Z,12.75
2022-12-20T02:02:08.677Z,13.18
2022-12-20T02:04:36.363Z,12.25
2022-12-20T02:07:04.895Z,13.75
2022-12-20T02:09:34.270Z,11.30
2022-12-20T02:12:21.041Z,12.95
2022-12-20T02:15:24.476Z,11.80
2022-12-20T02:18:17.301Z,12.32
2022-12-20T02:21:04.045Z,11.68
2022-12-20T02:24:22.742Z,12.60
2022-12-20T02:27:18.787Z,12.75
2022-12-20T02:30:09.352Z,13.55
2022-12-20T02:32:51.875Z,13.25
2022-12-20T02:35:25.602Z,14.85
2022-12-20T02:37:56.065Z,15.10
2022-12-20T02:40:42.593Z,13.68
2022-12-20T02:43:29.159Z,14.07
2022-12-20T02:45:59.403Z,15.43
2022-12-20T02:48:31.006Z,14.02
2022-12-20T02:51:00.855Z,13.57
2022-12-20T02:53:29.752Z,13.13
2022-12-20T02:56:14.698Z,14.27
2022-12-20T03:01:25.713Z,13.45
2022-12-20T03:03:54.607Z,14.45
2022-12-20T03:06:22.182Z,13.38
2022-12-20T03:08:49.254Z,13.88
2022-12-20T03:11:16.724Z,14.15
2022-12-20T03:13:44.070Z,13.20
2022-12-20T03:16:11.449Z,13.32
2022-12-20T03:18:39.246Z,13.82
2022-12-20T03:21:06.503Z,13.93
2022-12-20T03:23:34.302Z,14.32
2022-12-20T03:26:02.107Z,14.82
2022-12-20T03:28:29.644Z,15.68
2022-12-20T03:30:56.689Z,14.73
2022-12-20T03:33:23.839Z,14.27
2022-12-20T03:35:50.932Z,15.00
2022-12-20T03:38:18.046Z,14.68
2022-12-20T03:40:45.292Z,14.10
2022-12-20T03:43:12.458Z,14.48
2022-12-20T03:45:39.533Z,13.45
2022-12-20T03:48:06.761Z,13.75
2022-12-20T03:50:34.591Z,15.63
2022-12-20T03:53:01.891Z,15.27
2022-12-20T03:55:29.025Z,14.63
2022-12-20T03:57:56.210Z,13.35
2022-12-20T04:00:23.598Z,13.90
2022-12-20T04:02:51.120Z,12.90
2022-12-20T04:05:18.724Z,12.27
2022-12-20T04:07:46.059Z,12.13
2022-12-20T04:10:13.676Z,12.77
2022-12-20T04:12:40.868Z,12.57
2022-12-20T04:15:09.166Z,13.48
2022-12-20T04:17:36.227Z,13.85
2022-12-20T04:20:19.168Z,13.52
2022-12-20T04:22:51.510Z,13.55
2022-12-20T04:25:21.386Z,12.40
2022-12-20T04:27:48.676Z,12.65
2022-12-20T04:30:15.923Z,12.18
2022-12-20T04:32:43.010Z,11.00
2022-12-20T04:35:10.517Z,11.60
2022-12-20T04:37:37.800Z,11.07
2022-12-20T04:40:05.658Z,11.90
2022-12-20T04:42:33.575Z,12.57
2022-12-20T04:45:00.663Z,12.48
2022-12-20T04:47:27.734Z,11.60
2022-12-20T04:49:54.904Z,11.60
2022-12-20T04:52:45.658Z,11.40
2022-12-20T04:55:15.184Z,12.52
2022-12-20T04:57:42.422Z,11.98
2022-12-20T05:00:10.543Z,12.35
2022-12-20T05:02:38.244Z,12.60
2022-12-20T05:05:05.706Z,11.82
2022-12-20T05:07:32.937Z,11.50
2022-12-20T05:10:00.135Z,11.32
2022-12-20T05:12:27.266Z,12.55
2022-12-20T05:14:54.300Z,14.52
2022-12-20T05:17:21.693Z,12.23
2022-12-20T05:19:48.823Z,11.80
2022-12-20T05:22:42.378Z,11.73
2022-12-20T05:25:31.705Z,11.63
2022-12-20T05:27:59.261Z,12.45
2022-12-20T05:30:26.758Z,11.52
2022-12-20T05:32:53.952Z,12.13
2022-12-20T05:35:21.090Z,10.90
2022-12-20T05:37:48.352Z,12.35
2022-12-20T05:40:16.246Z,12.45
2022-12-20T05:42:43.592Z,12.10
2022-12-20T05:45:11.308Z,11.27
2022-12-20T05:47:39.157Z,11.40
2022-12-20T05:50:07.046Z,11.68
2022-12-20T05:52:34.233Z,11.95
2022-12-20T05:55:01.339Z,13.65
2022-12-20T05:57:28.668Z,12.73
2022-12-20T05:59:55.871Z,12.60
2022-12-20T06:02:23.193Z,12.10
2022-12-20T06:04:50.488Z,12.02
2022-12-20T06:07:18.957Z,13.10
2022-12-20T06:09:46.050Z,13.77
2022-12-20T06:12:14.183Z,12.60
2022-12-20T06:14:41.286Z,12.77
2022-12-20T06:17:08.503Z,11.70
2022-12-20T06:19:35.695Z,11.98
2022-12-20T06:22:03.599Z,11.35
2022-12-20T06:24:31.208Z,10.90
2022-12-20T06:26:58.660Z,10.23
2022-12-20T06:29:25.823Z,10.90
2022-12-20T06:31:53.257Z,11.32
2022-12-20T06:34:21.098Z,12.27
2022-12-20T06:36:48.142Z,11.25
2022-12-20T06:39:15.424Z,10.50
2022-12-20T06:41:42.556Z,11.48
2022-12-20T06:44:09.649Z,11.95
2022-12-20T06:46:36.890Z,11.90
2022-12-20T06:49:04.273Z,11.63
2022-12-20T06:51:31.743Z,13.65
2022-12-20T06:53:58.788Z,11.75
2022-12-20T06:56:25.947Z,11.60
2022-12-20T06:58:53.124Z,11.00
2022-12-20T07:01:20.273Z,10.60
2022-12-20T07:03:47.706Z,10.15
2022-12-20T07:06:14.863Z,10.75
2022-12-20T07:08:42.128Z,10.50
2022-12-20T07:11:09.083Z,11.18
2022-12-20T07:13:36.177Z,10.82
2022-12-20T07:16:04.673Z,10.88
2022-12-20T07:18:32.818Z,11.27
2022-12-20T07:21:01.902Z,10.98
2022-12-20T07:23:29.323Z,11.52
2022-12-20T07:25:58.018Z,11.48
2022-12-20T07:28:26.263Z,11.55
2022-12-20T07:30:54.622Z,21.63
2022-12-20T07:33:22.013Z,14.75
2022-12-20T07:35:54.403Z,10.45
2022-12-20T07:38:21.973Z,10.45
2022-12-20T07:40:49.013Z,10.30
2022-12-20T07:43:16.152Z,10.15
2022-12-20T07:45:43.325Z,9.77
2022-12-20T07:48:15.706Z,9.20
2022-12-20T07:50:47.253Z,8.90
2022-12-20T07:53:14.697Z,8.85
2022-12-20T07:55:42.564Z,8.60
2022-12-20T07:58:12.182Z,8.80
2022-12-20T08:00:39.521Z,9.05
2022-12-20T08:03:31.932Z,11.25
2022-12-20T08:06:04.036Z,8.90
2022-12-20T08:08:33.435Z,8.90
2022-12-20T08:11:00.601Z,8.40
2022-12-20T08:13:27.835Z,8.30
2022-12-20T08:15:54.868Z,8.80
2022-12-20T08:18:21.867Z,9.27
2022-12-20T08:20:49.107Z,8.80
2022-12-20T08:23:16.428Z,8.32
2022-12-20T08:25:43.797Z,9.20
2022-12-20T08:28:11.285Z,8.88
2022-12-20T08:30:38.398Z,8.30
2022-12-20T08:33:05.878Z,8.43
2022-12-20T08:35:32.965Z,8.88
2022-12-20T08:38:00.051Z,8.25
2022-12-20T08:40:27.298Z,7.90
2022-12-20T08:42:54.409Z,8.75
2022-12-20T08:45:21.722Z,8.32
2022-12-20T08:47:49.072Z,7.40
2022-12-20T08:50:16.463Z,7.72
2022-12-20T08:52:43.579Z,7.60
2022-12-20T08:55:13.004Z,8.13
2022-12-20T08:57:40.626Z,9.48
2022-12-20T09:00:08.386Z,8.20
2022-12-20T09:02:38.380Z,7.78
2022-12-20T09:05:06.215Z,8.02
2022-12-20T09:07:33.681Z,7.30
2022-12-20T09:10:00.916Z,6.43
2022-12-20T09:12:27.968Z,7.65
2022-12-20T09:14:55.088Z,6.70
2022-12-20T09:17:22.188Z,6.57
2022-12-20T09:19:49.285Z,7.35
2022-12-20T09:22:16.370Z,7.30
2022-12-20T09:24:43.764Z,7.05
2022-12-20T09:27:10.864Z,6.95
2022-12-20T09:29:37.931Z,9.93
2022-12-20T09:32:05.168Z,7.35
2022-12-20T09:34:32.384Z,7.85
2022-12-20T09:36:59.682Z,7.90
2022-12-20T09:39:27.140Z,10.15
2022-12-20T09:41:54.473Z,10.23
2022-12-20T09:44:30.902Z,8.93
2022-12-20T09:47:20.735Z,9.55
2022-12-20T09:49:51.412Z,11.40
2022-12-20T09:52:24.427Z,7.20
2022-12-20T09:55:17.499Z,7.50
2022-12-20T09:57:53.716Z,8.00
2022-12-20T10:00:21.293Z,8.05
2022-12-20T10:03:09.892Z,10.48
2022-12-20T10:05:54.297Z,8.43
2022-12-20T10:08:40.243Z,6.90
2022-12-20T10:11:39.590Z,8.13
2022-12-20T10:14:37.602Z,10.15
2022-12-20T10:17:32.066Z,8.32
2022-12-20T10:20:11.608Z,7.88
2022-12-20T10:22:45.915Z,7.20
2022-12-20T10:25:31.263Z,6.97
2022-12-20T10:28:03.284Z,7.03
2022-12-20T10:30:32.815Z,6.95
2022-12-20T10:33:00.062Z,9.07
2022-12-20T10:35:31.460Z,9.93
2022-12-20T10:38:07.897Z,10.20
2022-12-20T10:43:36.825Z,7.40
2022-12-20T10:46:06.856Z,7.00
2022-12-20T10:48:41.223Z,7.10
2022-12-20T10:51:15.859Z,6.93
2022-12-20T10:53:59.077Z,6.05
2022-12-20T10:56:29.216Z,6.63
2022-12-20T10:59:02.899Z,7.53
2022-12-20T11:01:33.641Z,7.13
2022-12-20T11:04:07.613Z,5.70
2022-12-20T11:06:37.664Z,6.70
2022-12-20T11:09:22.811Z,6.93
2022-12-20T11:12:06.651Z,7.13
2022-12-20T11:14:39.640Z,7.93
2022-12-20T11:17:13.114Z,8.02
2022-12-20T11:20:22.250Z,7.25
2022-12-20T11:23:12.204Z,7.85
2022-12-20T11:25:55.825Z,9.43
2022-12-20T11:28:47.951Z,9.30
2022-12-20T11:31:41.603Z,13.13
2022-12-20T11:34:37.607Z,13.15
2022-12-20T11:37:10.767Z,13.85
2022-12-20T11:39:48.380Z,13.90
2022-12-20T11:42:44.160Z,10.95
2022-12-20T11:47:53.494Z,7.90
2022-12-20T11:50:33.056Z,7.88
2022-12-20T11:53:14.585Z,8.00
2022-12-20T11:55:44.862Z,11.00
2022-12-20T11:58:19.747Z,11.25
2022-12-20T12:01:03.778Z,8.68
2022-12-20T12:03:39.998Z,8.25
2022-12-20T12:06:22.203Z,7.57
2022-12-20T12:09:06.558Z,8.50
2022-12-20T12:12:05.862Z,7.97
2022-12-20T12:14:34.690Z,7.43
2022-12-20T12:17:10.436Z,8.00
2022-12-20T12:19:42.504Z,7.90
2022-12-20T12:22:20.266Z,10.05
2022-12-20T12:24:56.349Z,9.57
2022-12-20T12:27:26.345Z,10.73
2022-12-20T12:29:54.944Z,13.32
2022-12-20T12:32:44.537Z,10.43
2022-12-20T12:35:49.297Z,8.80
2022-12-20T12:38:44.394Z,7.72
2022-12-20T12:42:07.475Z,7.65
2022-12-20T12:45:04.029Z,8.35
2022-12-20T12:48:03.179Z,7.57
2022-12-20T12:50:46.257Z,7.15
2022-12-20T12:53:17.835Z,7.40
2022-12-20T12:56:07.500Z,7.38
2022-12-20T12:58:48.428Z,8.15
2022-12-20T13:01:54.191Z,7.78
2022-12-20T13:04:26.458Z,8.00
2022-12-20T13:06:59.921Z,8.18
2022-12-20T13:09:27.198Z,7.47
2022-12-20T13:12:02.390Z,9.27
2022-12-20T13:14:30.471Z,8.75
2022-12-20T13:17:20.764Z,7.35
2022-12-20T13:19:55.494Z,9.13
2022-12-20T13:22:23.838Z,8.02
2022-12-20T13:25:04.213Z,7.50
2022-12-20T13:27:36.008Z,7.65
2022-12-20T13:30:12.405Z,8.35
2022-12-20T13:32:48.839Z,6.57
2022-12-20T13:35:24.904Z,7.68
2022-12-20T13:38:04.201Z,6.78
2022-12-20T13:40:48.119Z,6.50
2022-12-20T13:43:21.944Z,6.38
2022-12-20T13:45:53.335Z,7.17
2022-12-20T13:48:26.378Z,6.82
2022-12-20T13:50:57.710Z,6.85
2022-12-20T13:53:30.124Z,6.97
2022-12-20T13:55:57.598Z,6.07
2022-12-20T13:58:34.406Z,5.50
2022-12-20T14:01:11.770Z,6.38
2022-12-20T14:03:46.196Z,6.25
2022-12-20T14:06:15.431Z,6.90
2022-12-20T14:08:47.098Z,6.93
2022-12-20T14:11:18.984Z,7.00
2022-12-20T14:13:55.079Z,7.45
2022-12-20T14:16:24.287Z,9.05
2022-12-20T14:18:58.299Z,9.52
2022-12-20T14:21:26.685Z,9.38
2022-12-20T14:23:57.779Z,12.07
2022-12-20T14:26:28.984Z,11.18
2022-12-20T14:29:01.615Z,10.57
2022-12-20T14:31:37.549Z,20.35
2022-12-20T14:34:13.701Z,15.55
2022-12-20T14:36:48.474Z,16.83
2022-12-20T14:39:23.100Z,10.98
2022-12-20T14:44:25.010Z,6.68
2022-12-20T14:46:58.487Z,6.10
2022-12-20T14:49:32.840Z,6.53
2022-12-20T14:52:12.179Z,6.53
2022-12-20T14:57:36.043Z,7.20
2022-12-20T15:00:14.331Z,11.02
2022-12-20T15:02:51.999Z,14.77
2022-12-20T15:05:34.920Z,5.97
2022-12-20T15:08:15.563Z,7.68
2022-12-20T15:10:53.956Z,5.90
2022-12-20T15:13:26.852Z,7.55
2022-12-20T15:15:54.148Z,8.63
2022-12-20T15:18:22.142Z,9.35
2022-12-20T15:21:00.765Z,9.88
2022-12-20T15:23:28.059Z,8.63
2022-12-20T15:25:56.389Z,7.28
2022-12-20T15:28:25.664Z,8.55
2022-12-20T15:30:53.760Z,10.40
2022-12-20T15:33:32.377Z,10.63
2022-12-20T15:36:00.335Z,7.68
2022-12-20T15:38:48.262Z,10.07
2022-12-20T15:41:27.639Z,14.55
2022-12-20T15:44:06.015Z,8.65
2022-12-20T15:46:33.815Z,8.00
2022-12-20T15:49:01.201Z,9.95
2022-12-20T15:51:34.945Z,9.15
2022-12-20T15:54:04.991Z,8.80
2022-12-20T15:56:33.123Z,8.70
2022-12-20T15:59:00.491Z,9.05
2022-12-20T16:01:40.395Z,8.45
2022-12-20T16:04:13.857Z,9.98
2022-12-20T16:06:41.853Z,15.27
2022-12-20T16:09:08.924Z,22.00
2022-12-20T16:11:36.794Z,19.92
2022-12-20T16:14:04.189Z,19.20
2022-12-20T16:16:34.855Z,12.85
2022-12-20T16:19:04.078Z,9.90
2022-12-20T16:21:34.432Z,9.02
2022-12-20T16:24:01.916Z,8.32
2022-12-20T16:26:29.277Z,8.38
2022-12-20T16:28:57.398Z,8.30
2022-12-20T16:31:38.727Z,8.40
2022-12-20T16:34:12.952Z,10.70
2022-12-20T16:36:40.311Z,7.88
2022-12-20T16:39:10.121Z,10.25
2022-12-20T16:41:39.287Z,9.90
2022-12-20T16:44:06.895Z,9.70
2022-12-20T16:46:34.959Z,10.70
2022-12-20T16:49:02.187Z,13.13
2022-12-20T16:51:40.700Z,11.52
2022-12-20T16:54:20.920Z,14.77
2022-12-20T16:56:57.541Z,13.98
2022-12-20T16:59:25.378Z,11.38
2022-12-20T17:01:55.347Z,11.02
2022-12-20T17:04:24.046Z,9.00
2022-12-20T17:06:51.180Z,8.50
2022-12-20T17:09:19.732Z,9.13
2022-12-20T17:11:47.940Z,8.35
2022-12-20T17:14:15.142Z,9.18
2022-12-20T17:16:42.396Z,14.15
2022-12-20T17:19:10.932Z,41.10
2022-12-20T17:24:27.041Z,19.17
2022-12-20T17:26:55.431Z,16.42
2022-12-20T17:29:22.702Z,11.80
2022-12-20T17:31:49.832Z,9.95
2022-12-20T17:34:22.273Z,9.15
2022-12-20T17:36:51.741Z,8.73
2022-12-20T17:39:18.933Z,9.40
2022-12-20T17:41:47.224Z,9.25
2022-12-20T17:44:19.230Z,11.23
2022-12-20T17:46:47.077Z,17.92
2022-12-20T17:49:14.855Z,14.18
2022-12-20T17:51:42.244Z,12.07
2022-12-20T17:54:18.417Z,12.80
2022-12-20T17:56:46.231Z,16.50
2022-12-20T17:59:14.518Z,15.15
2022-12-20T18:01:43.505Z,13.45
2022-12-20T18:04:13.658Z,12.98
2022-12-20T18:06:42.732Z,12.48
2022-12-20T18:09:18.756Z,50.80
2022-12-20T18:11:46.217Z,37.38
2022-12-20T18:14:14.194Z,24.05
2022-12-20T18:16:41.736Z,20.02
2022-12-20T18:19:15.995Z,33.75
2022-12-20T18:21:43.085Z,37.55
2022-12-20T18:24:12.215Z,33.35
2022-12-20T18:26:39.588Z,33.28
2022-12-20T18:29:06.693Z,28.10
2022-12-20T18:31:35.406Z,21.13
2022-12-20T18:34:03.360Z,15.90
2022-12-20T18:36:34.802Z,13.30
2022-12-20T18:39:04.665Z,10.80
2022-12-20T18:41:32.414Z,11.63
2022-12-20T18:44:02.114Z,11.40
2022-12-20T18:46:30.574Z,10.77
2022-12-20T18:48:59.892Z,18.80
2022-12-20T18:51:29.415Z,11.40
2022-12-20T18:53:58.488Z,9.73
2022-12-20T18:56:33.505Z,9.02
2022-12-20T18:59:08.172Z,9.20
2022-12-20T19:01:39.423Z,9.40
2022-12-20T19:04:07.620Z,9.82
2022-12-20T19:06:36.132Z,8.75
2022-12-20T19:09:08.004Z,9.50
2022-12-20T19:11:35.917Z,9.77
2022-12-20T19:14:03.723Z,9.63
2022-12-20T19:16:32.847Z,8.65
2022-12-20T19:19:01.785Z,8.63
2022-12-20T19:21:31.512Z,8.05
2022-12-20T19:24:00.894Z,9.35
2022-12-20T19:26:29.824Z,9.07
2022-12-20T19:28:58.205Z,8.68
2022-12-20T19:31:27.909Z,8.90
2022-12-20T19:33:57.747Z,8.82
2022-12-20T19:36:28.525Z,8.27
2022-12-20T19:38:58.206Z,8.68
2022-12-20T19:41:30.544Z,9.02
2022-12-20T19:43:58.286Z,8.57
2022-12-20T19:46:29.059Z,9.02
2022-12-20T19:48:59.021Z,15.00
2022-12-20T19:51:28.414Z,11.85
2022-12-20T19:53:56.850Z,15.43
2022-12-20T19:56:30.266Z,12.30
2022-12-20T19:58:57.512Z,10.27
2022-12-20T20:01:27.150Z,9.95
2022-12-20T20:03:56.129Z,10.70
2022-12-20T20:06:24.116Z,9.50
2022-12-20T20:08:51.962Z,10.20
2022-12-20T20:11:21.125Z,10.55
2022-12-20T20:13:48.371Z,10.40
2022-12-20T20:16:21.624Z,10.32
2022-12-20T20:18:50.192Z,10.90
2022-12-20T20:21:21.308Z,11.23
2022-12-20T20:23:52.795Z,10.32
2022-12-20T20:26:23.331Z,10.68
2022-12-20T20:28:50.987Z,10.20
2022-12-20T20:31:19.651Z,11.00
2022-12-20T20:33:46.910Z,12.00
2022-12-20T20:36:18.103Z,10.38
2022-12-20T20:38:45.888Z,9.55
2022-12-20T20:41:14.309Z,9.48
2022-12-20T20:43:42.187Z,8.98
2022-12-20T20:46:12.036Z,8.85
2022-12-20T20:48:40.071Z,7.90
2022-12-20T20:51:07.683Z,7.68
2022-12-20T20:53:35.156Z,7.72
2022-12-20T20:56:03.585Z,8.80
2022-12-20T20:58:31.396Z,9.38
2022-12-20T21:01:01.092Z,11.77
2022-12-20T21:03:29.937Z,11.10
2022-12-20T21:08:45.495Z,10.40
2022-12-20T21:11:12.946Z,11.18
2022-12-20T21:13:40.396Z,10.07
2022-12-20T21:16:20.611Z,9.48
2022-12-20T21:18:52.817Z,10.52
2022-12-20T21:21:20.592Z,8.60
2022-12-20T21:23:48.361Z,9.10
2022-12-20T21:26:17.979Z,8.15
2022-12-20T21:28:45.897Z,8.40
2022-12-20T21:31:16.131Z,9.55
2022-12-20T21:33:44.610Z,8.98
2022-12-20T21:36:14.372Z,9.15
2022-12-20T21:38:41.790Z,9.30
2022-12-20T21:41:12.419Z,10.65
2022-12-20T21:43:39.813Z,10.15
2022-12-20T21:46:11.362Z,13.48
2022-12-20T21:48:40.353Z,11.95
2022-12-20T21:51:13.969Z,11.00
2022-12-20T21:53:49.593Z,10.37
2022-12-20T21:56:18.191Z,9.73
2022-12-20T21:58:45.805Z,8.93
2022-12-20T22:01:15.587Z,9.60
2022-12-20T22:03:44.445Z,9.38
2022-12-20T22:06:12.617Z,9.02
2022-12-20T22:08:39.863Z,8.55
2022-12-20T22:11:11.983Z,9.05
2022-12-20T22:13:41.783Z,8.35
2022-12-20T22:16:25.611Z,8.32
2022-12-20T22:18:54.571Z,8.63
2022-12-20T22:21:24.477Z,8.25
2022-12-20T22:23:51.847Z,8.23
2022-12-20T22:26:22.858Z,9.25
2022-12-20T22:28:52.694Z,8.82
2022-12-20T22:31:20.863Z,8.50
2022-12-20T22:33:49.463Z,7.55
2022-12-20T22:36:17.529Z,8.45
2022-12-20T22:38:45.000Z,8.15
2022-12-20T22:41:23.839Z,11.10
2022-12-20T22:43:51.346Z,12.85
2022-12-20T22:46:19.571Z,11.15
2022-12-20T22:48:47.684Z,11.82
2022-12-20T22:51:18.363Z,11.13
2022-12-20T22:53:47.553Z,11.75
2022-12-20T22:56:16.387Z,9.95
2022-12-20T22:58:44.013Z,9.93
2022-12-20T23:01:14.032Z,9.10
2022-12-20T23:03:41.869Z,8.77
2022-12-20T23:06:12.205Z,10.50
2022-12-20T23:08:39.712Z,10.00
2022-12-20T23:11:34.966Z,10.10
2022-12-20T23:16:48.324Z,9.35
2022-12-20T23:19:15.587Z,9.73
2022-12-20T23:22:01.252Z,8.85
2022-12-20T23:24:28.673Z,9.52
2022-12-20T23:26:56.008Z,10.38
2022-12-20T23:29:23.895Z,9.55
2022-12-20T23:31:51.556Z,10.18
2022-12-20T23:34:18.948Z,10.25
2022-12-20T23:36:46.119Z,10.80
2022-12-20T23:39:13.315Z,9.98
2022-12-20T23:41:40.588Z,11.18
2022-12-20T23:44:07.824Z,10.25
2022-12-20T23:46:34.940Z,10.85
2022-12-20T23:49:02.000Z,11.55
2022-12-20T23:51:29.381Z,12.82
2022-12-20T23:53:56.570Z,11.55
2022-12-20T23:56:24.061Z,10.90
2022-12-20T23:58:55.372Z,9.98
